sensor_id;sensor_type;location;lat;lon;timestamp;P1;durP1;ratioP1;P2;durP2;ratioP2
48853;SDS011;34673;52.808;17.856;2023-04-30T00:01:09;19.17;;;11.38;;
48853;SDS011;34673;52.808;17.856;2023-04-30T00:03:36;21.85;;;12.90;;
48853;SDS011;34673;52.808;17.856;2023-04-30T00:06:03;18.17;;;11.98;;
48853;SDS011;34673;52.808;17.856;2023-04-30T00:08:31;20.15;;;12.13;;
48853;SDS011;34673;52.808;17.856;2023-04-30T00:10:58;22.58;;;12.35;;
48853;SDS011;34673;52.808;17.856;2023-04-30T00:13:25;17.27;;;11.07;;
48853;SDS011;34673;52.808;17.856;2023-04-30T00:15:52;19.95;;;12.27;;
48853;SDS011;34673;52.808;17.856;2023-04-30T00:18:19;21.13;;;11.93;;
48853;SDS011;34673;52.808;17.856;2023-04-30T00:20:46;17.52;;;11.57;;
48853;SDS011;34673;52.808;17.856;2023-04-30T00:23:13;21.17;;;11.68;;
48853;SDS011;34673;52.808;17.856;2023-04-30T00:25:40;18.77;;;11.18;;
48853;SDS011;34673;52.808;17.856;2023-04-30T00:28:07;17.10;;;11.60;;
48853;SDS011;34673;52.808;17.856;2023-04-30T00:30:35;19.58;;;11.35;;
48853;SDS011;34673;52.808;17.856;2023-04-30T00:33:01;20.17;;;11.02;;
48853;SDS011;34673;52.808;17.856;2023-04-30T00:35:29;17.08;;;10.27;;
48853;SDS011;34673;52.808;17.856;2023-04-30T00:37:56;19.27;;;10.32;;
48853;SDS011;34673;52.808;17.856;2023-04-30T00:40:23;21.95;;;10.10;;
48853;SDS011;34673;52.808;17.856;2023-04-30T00:42:50;18.08;;;10.68;;
48853;SDS011;34673;52.808;17.856;2023-04-30T00:45:19;17.55;;;10.50;;
48853;SDS011;34673;52.808;17.856;2023-04-30T00:47:48;18.25;;;10.48;;
48853;SDS011;34673;52.808;17.856;2023-04-30T00:50:15;17.73;;;10.35;;
48853;SDS011;34673;52.808;17.856;2023-04-30T00:52:43;18.70;;;10.68;;
48853;SDS011;34673;52.808;17.856;2023-04-30T00:55:11;15.65;;;9.90;;
48853;SDS011;34673;52.808;17.856;2023-04-30T00:57:39;17.88;;;10.15;;
48853;SDS011;34673;52.808;17.856;2023-04-30T01:00:07;18.67;;;10.57;;
48853;SDS011;34673;52.808;17.856;2023-04-30T01:02:37;17.80;;;10.15;;
48853;SDS011;34673;52.808;17.856;2023-04-30T01:05:05;16.50;;;10.18;;
48853;SDS011;34673;52.808;17.856;2023-04-30T01:07:33;17.50;;;10.65;;
48853;SDS011;34673;52.808;17.856;2023-04-30T01:10:01;17.08;;;9.98;;
48853;SDS011;34673;52.808;17.856;2023-04-30T01:18:24;15.77;;;9.70;;
48853;SDS011;34673;52.808;17.856;2023-04-30T01:21:05;17.15;;;10.38;;
48853;SDS011;34673;52.808;17.856;2023-04-30T01:26:23;16.00;;;9.15;;
48853;SDS011;34673;52.808;17.856;2023-04-30T01:29:03;18.70;;;9.20;;
48853;SDS011;34673;52.808;17.856;2023-04-30T01:31:32;16.52;;;9.52;;
48853;SDS011;34673;52.808;17.856;2023-04-30T01:33:59;14.43;;;9.00;;
48853;SDS011;34673;52.808;17.856;2023-04-30T01:36:43;20.45;;;10.15;;
48853;SDS011;34673;52.808;17.856;2023-04-30T01:39:30;18.88;;;9.98;;
48853;SDS011;34673;52.808;17.856;2023-04-30T01:42:21;14.75;;;9.80;;
48853;SDS011;34673;52.808;17.856;2023-04-30T01:53:06;15.65;;;9.43;;
48853;SDS011;34673;52.808;17.856;2023-04-30T01:58:09;15.23;;;8.48;;
48853;SDS011;34673;52.808;17.856;2023-04-30T02:00:39;17.75;;;8.68;;
48853;SDS011;34673;52.808;17.856;2023-04-30T02:03:06;17.08;;;9.20;;
48853;SDS011;34673;52.808;17.856;2023-04-30T02:05:34;15.88;;;9.32;;
48853;SDS011;34673;52.808;17.856;2023-04-30T02:08:01;17.45;;;9.27;;
48853;SDS011;34673;52.808;17.856;2023-04-30T02:10:28;13.20;;;8.43;;
48853;SDS011;34673;52.808;17.856;2023-04-30T02:12:56;13.98;;;8.50;;
48853;SDS011;34673;52.808;17.856;2023-04-30T02:15:23;14.68;;;8.77;;
48853;SDS011;34673;52.808;17.856;2023-04-30T02:17:50;14.75;;;9.15;;
48853;SDS011;34673;52.808;17.856;2023-04-30T02:20:17;15.15;;;8.75;;
48853;SDS011;34673;52.808;17.856;2023-04-30T02:22:45;16.48;;;9.10;;
48853;SDS011;34673;52.808;17.856;2023-04-30T02:25:12;16.25;;;9.48;;
48853;SDS011;34673;52.808;17.856;2023-04-30T02:27:39;14.93;;;8.98;;
48853;SDS011;34673;52.808;17.856;2023-04-30T02:30:08;14.45;;;8.57;;
48853;SDS011;34673;52.808;17.856;2023-04-30T02:32:35;15.35;;;8.68;;
48853;SDS011;34673;52.808;17.856;2023-04-30T02:35:02;17.58;;;9.35;;
48853;SDS011;34673;52.808;17.856;2023-04-30T02:37:30;15.48;;;8.52;;
48853;SDS011;34673;52.808;17.856;2023-04-30T02:39:57;13.73;;;8.55;;
48853;SDS011;34673;52.808;17.856;2023-04-30T02:42:24;15.23;;;8.57;;
48853;SDS011;34673;52.808;17.856;2023-04-30T02:44:51;18.00;;;8.60;;
48853;SDS011;34673;52.808;17.856;2023-04-30T02:47:18;18.13;;;9.25;;
48853;SDS011;34673;52.808;17.856;2023-04-30T02:49:45;17.55;;;9.35;;
48853;SDS011;34673;52.808;17.856;2023-04-30T02:52:12;19.38;;;9.68;;
48853;SDS011;34673;52.808;17.856;2023-04-30T02:54:40;16.17;;;8.75;;
48853;SDS011;34673;52.808;17.856;2023-04-30T02:57:07;17.15;;;9.52;;
48853;SDS011;34673;52.808;17.856;2023-04-30T02:59:34;17.23;;;9.25;;
48853;SDS011;34673;52.808;17.856;2023-04-30T03:02:01;15.63;;;9.32;;
48853;SDS011;34673;52.808;17.856;2023-04-30T03:04:29;17.92;;;9.52;;
48853;SDS011;34673;52.808;17.856;2023-04-30T03:06:56;16.15;;;9.25;;
48853;SDS011;34673;52.808;17.856;2023-04-30T03:09:23;15.55;;;8.93;;
48853;SDS011;34673;52.808;17.856;2023-04-30T03:11:50;15.25;;;8.75;;
48853;SDS011;34673;52.808;17.856;2023-04-30T03:14:17;15.20;;;9.48;;
48853;SDS011;34673;52.808;17.856;2023-04-30T03:16:44;16.02;;;8.63;;
48853;SDS011;34673;52.808;17.856;2023-04-30T03:19:11;13.73;;;8.65;;
48853;SDS011;34673;52.808;17.856;2023-04-30T03:21:39;16.27;;;8.60;;
48853;SDS011;34673;52.808;17.856;2023-04-30T03:24:06;16.40;;;8.48;;
48853;SDS011;34673;52.808;17.856;2023-04-30T03:26:33;18.40;;;9.30;;
48853;SDS011;34673;52.808;17.856;2023-04-30T03:29:01;16.90;;;8.88;;
48853;SDS011;34673;52.808;17.856;2023-04-30T03:31:28;13.82;;;8.38;;
48853;SDS011;34673;52.808;17.856;2023-04-30T03:33:55;17.08;;;8.55;;
48853;SDS011;34673;52.808;17.856;2023-04-30T03:36:22;13.77;;;8.07;;
48853;SDS011;34673;52.808;17.856;2023-04-30T03:38:49;16.90;;;8.35;;
48853;SDS011;34673;52.808;17.856;2023-04-30T03:41:17;15.90;;;8.23;;
48853;SDS011;34673;52.808;17.856;2023-04-30T03:43:44;14.57;;;8.50;;
48853;SDS011;34673;52.808;17.856;2023-04-30T03:46:11;16.85;;;8.10;;
48853;SDS011;34673;52.808;17.856;2023-04-30T03:48:38;16.40;;;8.82;;
48853;SDS011;34673;52.808;17.856;2023-04-30T03:51:06;12.98;;;7.82;;
48853;SDS011;34673;52.808;17.856;2023-04-30T03:53:33;13.75;;;7.88;;
48853;SDS011;34673;52.808;17.856;2023-04-30T03:56:00;14.55;;;7.93;;
48853;SDS011;34673;52.808;17.856;2023-04-30T03:58:28;17.67;;;7.97;;
48853;SDS011;34673;52.808;17.856;2023-04-30T04:00:56;15.32;;;8.35;;
48853;SDS011;34673;52.808;17.856;2023-04-30T04:03:23;15.20;;;8.20;;
48853;SDS011;34673;52.808;17.856;2023-04-30T04:05:50;16.38;;;7.75;;
48853;SDS011;34673;52.808;17.856;2023-04-30T04:08:18;14.57;;;7.40;;
48853;SDS011;34673;52.808;17.856;2023-04-30T04:10:45;13.25;;;7.13;;
48853;SDS011;34673;52.808;17.856;2023-04-30T04:13:12;16.60;;;7.30;;
48853;SDS011;34673;52.808;17.856;2023-04-30T04:15:39;12.73;;;6.80;;
48853;SDS011;34673;52.808;17.856;2023-04-30T04:18:07;13.98;;;6.60;;
48853;SDS011;34673;52.808;17.856;2023-04-30T04:20:34;13.10;;;6.45;;
48853;SDS011;34673;52.808;17.856;2023-04-30T04:23:02;14.52;;;7.07;;
48853;SDS011;34673;52.808;17.856;2023-04-30T04:25:29;11.95;;;6.40;;
48853;SDS011;34673;52.808;17.856;2023-04-30T04:27:56;17.25;;;6.55;;
48853;SDS011;34673;52.808;17.856;2023-04-30T04:30:23;14.63;;;5.95;;
48853;SDS011;34673;52.808;17.856;2023-04-30T04:32:50;11.35;;;5.80;;
48853;SDS011;34673;52.808;17.856;2023-04-30T04:35:19;11.63;;;5.38;;
48853;SDS011;34673;52.808;17.856;2023-04-30T04:37:47;12.75;;;5.53;;
48853;SDS011;34673;52.808;17.856;2023-04-30T04:40:14;12.35;;;4.93;;
48853;SDS011;34673;52.808;17.856;2023-04-30T04:42:41;12.63;;;5.15;;
48853;SDS011;34673;52.808;17.856;2023-04-30T04:45:10;9.48;;;4.95;;
48853;SDS011;34673;52.808;17.856;2023-04-30T04:47:37;13.30;;;5.18;;
48853;SDS011;34673;52.808;17.856;2023-04-30T04:50:05;11.02;;;5.05;;
48853;SDS011;34673;52.808;17.856;2023-04-30T04:52:33;14.38;;;4.95;;
48853;SDS011;34673;52.808;17.856;2023-04-30T04:55:00;13.02;;;4.93;;
48853;SDS011;34673;52.808;17.856;2023-04-30T04:57:27;13.30;;;4.82;;
48853;SDS011;34673;52.808;17.856;2023-04-30T04:59:55;9.98;;;4.95;;
48853;SDS011;34673;52.808;17.856;2023-04-30T05:02:22;10.15;;;4.53;;
48853;SDS011;34673;52.808;17.856;2023-04-30T05:04:50;10.63;;;4.75;;
48853;SDS011;34673;52.808;17.856;2023-04-30T05:07:17;9.25;;;3.90;;
48853;SDS011;34673;52.808;17.856;2023-04-30T05:09:45;11.35;;;4.80;;
48853;SDS011;34673;52.808;17.856;2023-04-30T05:12:13;9.07;;;4.50;;
48853;SDS011;34673;52.808;17.856;2023-04-30T05:14:41;9.77;;;4.50;;
48853;SDS011;34673;52.808;17.856;2023-04-30T05:17:08;8.23;;;3.90;;
48853;SDS011;34673;52.808;17.856;2023-04-30T05:19:35;11.30;;;4.50;;
48853;SDS011;34673;52.808;17.856;2023-04-30T05:22:02;10.30;;;4.82;;
48853;SDS011;34673;52.808;17.856;2023-04-30T05:24:30;12.15;;;4.75;;
48853;SDS011;34673;52.808;17.856;2023-04-30T05:26:57;10.30;;;4.45;;
48853;SDS011;34673;52.808;17.856;2023-04-30T05:29:24;13.00;;;5.32;;
48853;SDS011;34673;52.808;17.856;2023-04-30T05:31:51;11.38;;;3.95;;
48853;SDS011;34673;52.808;17.856;2023-04-30T05:34:20;10.20;;;3.97;;
48853;SDS011;34673;52.808;17.856;2023-04-30T05:36:47;10.43;;;4.28;;
48853;SDS011;34673;52.808;17.856;2023-04-30T05:39:14;11.50;;;3.90;;
48853;SDS011;34673;52.808;17.856;2023-04-30T05:41:41;10.05;;;3.47;;
48853;SDS011;34673;52.808;17.856;2023-04-30T05:44:08;10.10;;;3.92;;
48853;SDS011;34673;52.808;17.856;2023-04-30T05:46:36;10.30;;;3.50;;
48853;SDS011;34673;52.808;17.856;2023-04-30T05:49:03;10.02;;;3.67;;
48853;SDS011;34673;52.808;17.856;2023-04-30T05:51:30;9.68;;;4.05;;
48853;SDS011;34673;52.808;17.856;2023-04-30T05:53:58;10.07;;;3.70;;
48853;SDS011;34673;52.808;17.856;2023-04-30T05:56:25;11.23;;;3.42;;
48853;SDS011;34673;52.808;17.856;2023-04-30T05:58:53;12.13;;;3.75;;
48853;SDS011;34673;52.808;17.856;2023-04-30T06:01:20;10.70;;;3.25;;
48853;SDS011;34673;52.808;17.856;2023-04-30T06:03:48;12.75;;;3.33;;
48853;SDS011;34673;52.808;17.856;2023-04-30T06:06:16;9.60;;;3.20;;
48853;SDS011;34673;52.808;17.856;2023-04-30T06:08:43;13.07;;;3.40;;
48853;SDS011;34673;52.808;17.856;2023-04-30T06:11:11;8.48;;;3.15;;
48853;SDS011;34673;52.808;17.856;2023-04-30T06:13:39;10.27;;;2.80;;
48853;SDS011;34673;52.808;17.856;2023-04-30T06:16:06;7.97;;;2.92;;
48853;SDS011;34673;52.808;17.856;2023-04-30T06:18:34;7.50;;;2.88;;
48853;SDS011;34673;52.808;17.856;2023-04-30T06:21:01;10.82;;;2.75;;
48853;SDS011;34673;52.808;17.856;2023-04-30T06:23:29;8.70;;;2.70;;
48853;SDS011;34673;52.808;17.856;2023-04-30T06:25:56;7.32;;;2.70;;
48853;SDS011;34673;52.808;17.856;2023-04-30T06:28:23;12.45;;;3.20;;
48853;SDS011;34673;52.808;17.856;2023-04-30T06:30:50;11.68;;;2.58;;
48853;SDS011;34673;52.808;17.856;2023-04-30T06:33:20;12.90;;;3.08;;
48853;SDS011;34673;52.808;17.856;2023-04-30T06:35:47;9.45;;;2.83;;
48853;SDS011;34673;52.808;17.856;2023-04-30T06:38:16;10.63;;;2.58;;
48853;SDS011;34673;52.808;17.856;2023-04-30T06:40:43;9.55;;;2.55;;
48853;SDS011;34673;52.808;17.856;2023-04-30T06:43:11;7.95;;;2.58;;
48853;SDS011;34673;52.808;17.856;2023-04-30T06:45:38;9.55;;;2.70;;
48853;SDS011;34673;52.808;17.856;2023-04-30T06:48:06;9.48;;;2.60;;
48853;SDS011;34673;52.808;17.856;2023-04-30T06:50:33;9.27;;;2.55;;
48853;SDS011;34673;52.808;17.856;2023-04-30T06:53:00;8.30;;;2.45;;
48853;SDS011;34673;52.808;17.856;2023-04-30T06:55:27;12.90;;;2.67;;
48853;SDS011;34673;52.808;17.856;2023-04-30T06:57:54;7.18;;;2.28;;
48853;SDS011;34673;52.808;17.856;2023-04-30T07:00:23;9.10;;;2.42;;
48853;SDS011;34673;52.808;17.856;2023-04-30T07:02:50;9.40;;;2.42;;
48853;SDS011;34673;52.808;17.856;2023-04-30T07:05:18;8.77;;;2.17;;
48853;SDS011;34673;52.808;17.856;2023-04-30T07:07:45;9.10;;;2.42;;
48853;SDS011;34673;52.808;17.856;2023-04-30T07:10:12;6.45;;;2.38;;
48853;SDS011;34673;52.808;17.856;2023-04-30T07:12:39;5.55;;;2.10;;
48853;SDS011;34673;52.808;17.856;2023-04-30T07:15:07;8.18;;;2.10;;
48853;SDS011;34673;52.808;17.856;2023-04-30T07:17:34;5.72;;;2.17;;
48853;SDS011;34673;52.808;17.856;2023-04-30T07:20:03;5.07;;;1.80;;
48853;SDS011;34673;52.808;17.856;2023-04-30T07:22:31;7.18;;;1.90;;
48853;SDS011;34673;52.808;17.856;2023-04-30T07:24:58;6.68;;;2.13;;
48853;SDS011;34673;52.808;17.856;2023-04-30T07:27:26;7.05;;;2.00;;
48853;SDS011;34673;52.808;17.856;2023-04-30T07:29:54;6.80;;;1.75;;
48853;SDS011;34673;52.808;17.856;2023-04-30T07:32:22;9.05;;;1.92;;
48853;SDS011;34673;52.808;17.856;2023-04-30T07:34:52;6.95;;;1.80;;
48853;SDS011;34673;52.808;17.856;2023-04-30T07:37:20;6.35;;;1.83;;
48853;SDS011;34673;52.808;17.856;2023-04-30T07:39:47;8.82;;;1.75;;
48853;SDS011;34673;52.808;17.856;2023-04-30T07:42:14;9.43;;;2.30;;
48853;SDS011;34673;52.808;17.856;2023-04-30T07:44:41;7.03;;;1.50;;
48853;SDS011;34673;52.808;17.856;2023-04-30T07:47:09;8.88;;;2.03;;
48853;SDS011;34673;52.808;17.856;2023-04-30T07:49:36;5.90;;;1.85;;
48853;SDS011;34673;52.808;17.856;2023-04-30T07:52:03;5.75;;;2.10;;
48853;SDS011;34673;52.808;17.856;2023-04-30T07:54:31;8.70;;;2.10;;
48853;SDS011;34673;52.808;17.856;2023-04-30T07:59:29;6.20;;;1.55;;
48853;SDS011;34673;52.808;17.856;2023-04-30T08:01:56;5.63;;;1.40;;
48853;SDS011;34673;52.808;17.856;2023-04-30T08:04:24;4.68;;;1.33;;
48853;SDS011;34673;52.808;17.856;2023-04-30T08:06:52;6.45;;;1.55;;
48853;SDS011;34673;52.808;17.856;2023-04-30T08:09:19;5.28;;;1.25;;
48853;SDS011;34673;52.808;17.856;2023-04-30T08:11:46;7.30;;;2.10;;
48853;SDS011;34673;52.808;17.856;2023-04-30T08:14:13;9.35;;;2.60;;
48853;SDS011;34673;52.808;17.856;2023-04-30T08:16:40;6.25;;;2.05;;
48853;SDS011;34673;52.808;17.856;2023-04-30T08:19:08;4.50;;;1.52;;
48853;SDS011;34673;52.808;17.856;2023-04-30T08:21:35;6.25;;;1.70;;
48853;SDS011;34673;52.808;17.856;2023-04-30T08:24:02;7.15;;;1.40;;
48853;SDS011;34673;52.808;17.856;2023-04-30T08:26:29;5.68;;;1.70;;
48853;SDS011;34673;52.808;17.856;2023-04-30T08:28:57;6.53;;;2.10;;
48853;SDS011;34673;52.808;17.856;2023-04-30T08:31:24;5.82;;;1.80;;
48853;SDS011;34673;52.808;17.856;2023-04-30T08:33:51;6.05;;;2.05;;
48853;SDS011;34673;52.808;17.856;2023-04-30T08:36:18;9.55;;;2.05;;
48853;SDS011;34673;52.808;17.856;2023-04-30T08:38:46;6.28;;;1.70;;
48853;SDS011;34673;52.808;17.856;2023-04-30T08:41:13;5.82;;;1.90;;
48853;SDS011;34673;52.808;17.856;2023-04-30T08:43:45;4.70;;;1.60;;
48853;SDS011;34673;52.808;17.856;2023-04-30T08:46:21;4.90;;;1.50;;
48853;SDS011;34673;52.808;17.856;2023-04-30T08:48:50;7.88;;;1.80;;
48853;SDS011;34673;52.808;17.856;2023-04-30T08:51:17;4.82;;;1.85;;
48853;SDS011;34673;52.808;17.856;2023-04-30T08:53:45;8.82;;;2.35;;
48853;SDS011;34673;52.808;17.856;2023-04-30T08:56:16;5.47;;;1.88;;
48853;SDS011;34673;52.808;17.856;2023-04-30T08:58:43;6.40;;;2.03;;
48853;SDS011;34673;52.808;17.856;2023-04-30T09:01:10;6.18;;;1.92;;
48853;SDS011;34673;52.808;17.856;2023-04-30T09:03:38;5.97;;;1.92;;
48853;SDS011;34673;52.808;17.856;2023-04-30T09:06:05;5.65;;;2.10;;
48853;SDS011;34673;52.808;17.856;2023-04-30T09:08:45;7.72;;;2.58;;
48853;SDS011;34673;52.808;17.856;2023-04-30T09:13:50;5.88;;;1.75;;
48853;SDS011;34673;52.808;17.856;2023-04-30T09:16:19;7.60;;;2.40;;
48853;SDS011;34673;52.808;17.856;2023-04-30T09:18:47;6.55;;;2.20;;
48853;SDS011;34673;52.808;17.856;2023-04-30T09:21:15;6.28;;;1.90;;
48853;SDS011;34673;52.808;17.856;2023-04-30T09:23:55;5.05;;;2.15;;
48853;SDS011;34673;52.808;17.856;2023-04-30T09:26:31;5.18;;;1.88;;
48853;SDS011;34673;52.808;17.856;2023-04-30T09:29:00;9.15;;;1.98;;
48853;SDS011;34673;52.808;17.856;2023-04-30T09:31:33;6.78;;;2.25;;
48853;SDS011;34673;52.808;17.856;2023-04-30T09:34:04;5.38;;;2.20;;
48853;SDS011;34673;52.808;17.856;2023-04-30T09:36:32;8.63;;;2.05;;
48853;SDS011;34673;52.808;17.856;2023-04-30T09:39:09;9.95;;;1.90;;
48853;SDS011;34673;52.808;17.856;2023-04-30T09:41:41;5.00;;;1.65;;
48853;SDS011;34673;52.808;17.856;2023-04-30T09:46:56;7.05;;;1.90;;
48853;SDS011;34673;52.808;17.856;2023-04-30T09:51:57;6.47;;;2.03;;
48853;SDS011;34673;52.808;17.856;2023-04-30T09:54:30;5.60;;;1.85;;
48853;SDS011;34673;52.808;17.856;2023-04-30T09:56:58;7.65;;;1.98;;
48853;SDS011;34673;52.808;17.856;2023-04-30T09:59:29;5.13;;;1.70;;
48853;SDS011;34673;52.808;17.856;2023-04-30T10:04:28;6.25;;;1.55;;
48853;SDS011;34673;52.808;17.856;2023-04-30T10:06:57;4.53;;;1.90;;
48853;SDS011;34673;52.808;17.856;2023-04-30T10:09:28;4.55;;;1.63;;
48853;SDS011;34673;52.808;17.856;2023-04-30T10:12:02;8.50;;;2.72;;
48853;SDS011;34673;52.808;17.856;2023-04-30T10:14:33;7.85;;;2.95;;
48853;SDS011;34673;52.808;17.856;2023-04-30T10:17:08;8.77;;;2.45;;
48853;SDS011;34673;52.808;17.856;2023-04-30T10:19:39;5.97;;;1.70;;
48853;SDS011;34673;52.808;17.856;2023-04-30T10:22:13;6.97;;;1.77;;
48853;SDS011;34673;52.808;17.856;2023-04-30T10:24:41;7.32;;;1.90;;
48853;SDS011;34673;52.808;17.856;2023-04-30T10:27:09;4.78;;;1.75;;
48853;SDS011;34673;52.808;17.856;2023-04-30T10:29:37;6.55;;;1.80;;
48853;SDS011;34673;52.808;17.856;2023-04-30T10:32:04;8.23;;;1.60;;
48853;SDS011;34673;52.808;17.856;2023-04-30T10:34:37;7.85;;;2.20;;
48853;SDS011;34673;52.808;17.856;2023-04-30T10:40:17;8.30;;;1.98;;
48853;SDS011;34673;52.808;17.856;2023-04-30T10:42:47;7.93;;;1.55;;
48853;SDS011;34673;52.808;17.856;2023-04-30T10:45:15;4.13;;;1.50;;
48853;SDS011;34673;52.808;17.856;2023-04-30T10:47:43;7.32;;;3.03;;
48853;SDS011;34673;52.808;17.856;2023-04-30T10:50:13;6.90;;;1.63;;
48853;SDS011;34673;52.808;17.856;2023-04-30T10:52:40;7.40;;;1.60;;
48853;SDS011;34673;52.808;17.856;2023-04-30T10:55:10;6.40;;;1.80;;
48853;SDS011;34673;52.808;17.856;2023-04-30T10:57:40;6.80;;;1.92;;
48853;SDS011;34673;52.808;17.856;2023-04-30T11:02:42;5.13;;;2.00;;
48853;SDS011;34673;52.808;17.856;2023-04-30T11:05:15;4.78;;;1.52;;
48853;SDS011;34673;52.808;17.856;2023-04-30T11:10:19;5.93;;;1.98;;
48853;SDS011;34673;52.808;17.856;2023-04-30T11:12:49;7.65;;;1.70;;
48853;SDS011;34673;52.808;17.856;2023-04-30T11:15:18;7.55;;;1.80;;
48853;SDS011;34673;52.808;17.856;2023-04-30T11:17:48;5.90;;;1.92;;
48853;SDS011;34673;52.808;17.856;2023-04-30T11:20:20;4.45;;;1.60;;
48853;SDS011;34673;52.808;17.856;2023-04-30T11:25:43;5.65;;;1.63;;
48853;SDS011;34673;52.808;17.856;2023-04-30T11:28:16;5.32;;;1.55;;
48853;SDS011;34673;52.808;17.856;2023-04-30T11:30:51;22.80;;;8.43;;
48853;SDS011;34673;52.808;17.856;2023-04-30T11:33:20;4.30;;;1.65;;
48853;SDS011;34673;52.808;17.856;2023-04-30T11:35:52;17.27;;;6.57;;
48853;SDS011;34673;52.808;17.856;2023-04-30T11:40:56;5.85;;;1.70;;
48853;SDS011;34673;52.808;17.856;2023-04-30T11:43:25;4.63;;;1.65;;
48853;SDS011;34673;52.808;17.856;2023-04-30T11:45:59;4.68;;;1.88;;
48853;SDS011;34673;52.808;17.856;2023-04-30T11:48:45;7.38;;;1.98;;
48853;SDS011;34673;52.808;17.856;2023-04-30T11:51:22;4.40;;;1.50;;
48853;SDS011;34673;52.808;17.856;2023-04-30T11:53:50;5.63;;;1.38;;
48853;SDS011;34673;52.808;17.856;2023-04-30T11:56:22;4.85;;;1.63;;
48853;SDS011;34673;52.808;17.856;2023-04-30T11:58:51;5.22;;;1.58;;
48853;SDS011;34673;52.808;17.856;2023-04-30T12:01:21;3.83;;;1.70;;
48853;SDS011;34673;52.808;17.856;2023-04-30T12:03:54;8.30;;;2.75;;
48853;SDS011;34673;52.808;17.856;2023-04-30T12:06:24;6.20;;;1.73;;
48853;SDS011;34673;52.808;17.856;2023-04-30T12:08:53;4.60;;;1.40;;
48853;SDS011;34673;52.808;17.856;2023-04-30T12:11:25;4.32;;;1.85;;
48853;SDS011;34673;52.808;17.856;2023-04-30T12:13:54;5.43;;;1.90;;
48853;SDS011;34673;52.808;17.856;2023-04-30T12:16:39;5.97;;;2.10;;
48853;SDS011;34673;52.808;17.856;2023-04-30T12:19:20;4.07;;;1.85;;
48853;SDS011;34673;52.808;17.856;2023-04-30T12:21:50;8.65;;;2.28;;
48853;SDS011;34673;52.808;17.856;2023-04-30T12:24:20;6.95;;;1.80;;
48853;SDS011;34673;52.808;17.856;2023-04-30T12:26:51;6.85;;;2.10;;
48853;SDS011;34673;52.808;17.856;2023-04-30T12:29:22;7.47;;;2.88;;
48853;SDS011;34673;52.808;17.856;2023-04-30T12:31:51;9.65;;;3.53;;
48853;SDS011;34673;52.808;17.856;2023-04-30T12:34:19;7.93;;;3.03;;
48853;SDS011;34673;52.808;17.856;2023-04-30T12:36:47;5.03;;;1.70;;
48853;SDS011;34673;52.808;17.856;2023-04-30T12:39:15;7.78;;;2.05;;
48853;SDS011;34673;52.808;17.856;2023-04-30T12:41:47;5.35;;;2.08;;
48853;SDS011;34673;52.808;17.856;2023-04-30T12:44:19;6.13;;;1.73;;
48853;SDS011;34673;52.808;17.856;2023-04-30T12:46:54;6.60;;;2.50;;
48853;SDS011;34673;52.808;17.856;2023-04-30T12:52:00;6.03;;;2.00;;
48853;SDS011;34673;52.808;17.856;2023-04-30T12:54:30;6.80;;;3.20;;
48853;SDS011;34673;52.808;17.856;2023-04-30T12:57:08;10.18;;;2.33;;
48853;SDS011;34673;52.808;17.856;2023-04-30T12:59:55;8.00;;;2.15;;
48853;SDS011;34673;52.808;17.856;2023-04-30T13:02:26;6.95;;;1.95;;
48853;SDS011;34673;52.808;17.856;2023-04-30T13:04:55;6.38;;;1.85;;
48853;SDS011;34673;52.808;17.856;2023-04-30T13:07:22;5.90;;;1.58;;
48853;SDS011;34673;52.808;17.856;2023-04-30T13:09:50;7.07;;;2.63;;
48853;SDS011;34673;52.808;17.856;2023-04-30T13:12:17;5.57;;;2.40;;
48853;SDS011;34673;52.808;17.856;2023-04-30T13:14:45;5.05;;;1.90;;
48853;SDS011;34673;52.808;17.856;2023-04-30T13:17:12;8.00;;;2.53;;
48853;SDS011;34673;52.808;17.856;2023-04-30T13:19:39;6.60;;;1.90;;
48853;SDS011;34673;52.808;17.856;2023-04-30T13:22:07;6.63;;;2.60;;
48853;SDS011;34673;52.808;17.856;2023-04-30T13:24:34;6.18;;;2.20;;
48853;SDS011;34673;52.808;17.856;2023-04-30T13:27:02;5.57;;;2.13;;
48853;SDS011;34673;52.808;17.856;2023-04-30T13:29:29;6.78;;;2.00;;
48853;SDS011;34673;52.808;17.856;2023-04-30T13:31:57;7.72;;;2.20;;
48853;SDS011;34673;52.808;17.856;2023-04-30T13:34:24;5.43;;;1.90;;
48853;SDS011;34673;52.808;17.856;2023-04-30T13:36:52;8.75;;;1.80;;
48853;SDS011;34673;52.808;17.856;2023-04-30T13:39:19;8.98;;;2.03;;
48853;SDS011;34673;52.808;17.856;2023-04-30T13:41:47;5.70;;;2.30;;
48853;SDS011;34673;52.808;17.856;2023-04-30T13:44:14;5.78;;;1.90;;
48853;SDS011;34673;52.808;17.856;2023-04-30T13:46:42;3.60;;;1.70;;
48853;SDS011;34673;52.808;17.856;2023-04-30T13:49:10;5.53;;;1.80;;
48853;SDS011;34673;52.808;17.856;2023-04-30T13:51:37;6.07;;;2.20;;
48853;SDS011;34673;52.808;17.856;2023-04-30T13:54:04;10.13;;;2.45;;
48853;SDS011;34673;52.808;17.856;2023-04-30T13:56:31;8.75;;;1.83;;
48853;SDS011;34673;52.808;17.856;2023-04-30T13:58:58;4.47;;;1.50;;
48853;SDS011;34673;52.808;17.856;2023-04-30T14:01:26;5.57;;;1.67;;
48853;SDS011;34673;52.808;17.856;2023-04-30T14:03:53;6.22;;;2.20;;
48853;SDS011;34673;52.808;17.856;2023-04-30T14:06:21;9.20;;;2.50;;
48853;SDS011;34673;52.808;17.856;2023-04-30T14:08:48;7.90;;;2.33;;
48853;SDS011;34673;52.808;17.856;2023-04-30T14:11:15;8.07;;;1.90;;
48853;SDS011;34673;52.808;17.856;2023-04-30T14:13:42;7.60;;;2.13;;
48853;SDS011;34673;52.808;17.856;2023-04-30T14:16:09;6.53;;;2.80;;
48853;SDS011;34673;52.808;17.856;2023-04-30T14:18:37;6.68;;;2.22;;
48853;SDS011;34673;52.808;17.856;2023-04-30T14:21:04;8.98;;;1.95;;
48853;SDS011;34673;52.808;17.856;2023-04-30T14:23:31;6.60;;;2.00;;
48853;SDS011;34673;52.808;17.856;2023-04-30T14:25:59;7.50;;;2.45;;
48853;SDS011;34673;52.808;17.856;2023-04-30T14:28:26;6.53;;;1.70;;
48853;SDS011;34673;52.808;17.856;2023-04-30T14:30:54;5.28;;;1.80;;
48853;SDS011;34673;52.808;17.856;2023-04-30T14:33:21;6.80;;;2.03;;
48853;SDS011;34673;52.808;17.856;2023-04-30T14:35:48;6.45;;;1.85;;
48853;SDS011;34673;52.808;17.856;2023-04-30T14:38:15;7.65;;;2.38;;
48853;SDS011;34673;52.808;17.856;2023-04-30T14:40:42;6.40;;;2.90;;
48853;SDS011;34673;52.808;17.856;2023-04-30T14:43:10;5.78;;;2.00;;
48853;SDS011;34673;52.808;17.856;2023-04-30T14:45:37;7.13;;;2.05;;
48853;SDS011;34673;52.808;17.856;2023-04-30T14:48:05;4.95;;;2.00;;
48853;SDS011;34673;52.808;17.856;2023-04-30T14:50:33;8.80;;;2.28;;
48853;SDS011;34673;52.808;17.856;2023-04-30T14:53:00;5.07;;;2.20;;
48853;SDS011;34673;52.808;17.856;2023-04-30T14:55:27;6.50;;;2.40;;
48853;SDS011;34673;52.808;17.856;2023-04-30T14:57:54;7.35;;;2.10;;
48853;SDS011;34673;52.808;17.856;2023-04-30T15:00:21;11.93;;;2.17;;
48853;SDS011;34673;52.808;17.856;2023-04-30T15:02:49;4.85;;;1.70;;
48853;SDS011;34673;52.808;17.856;2023-04-30T15:05:16;8.20;;;2.13;;
48853;SDS011;34673;52.808;17.856;2023-04-30T15:07:43;8.23;;;2.30;;
48853;SDS011;34673;52.808;17.856;2023-04-30T15:10:10;7.57;;;2.03;;
48853;SDS011;34673;52.808;17.856;2023-04-30T15:12:37;9.13;;;2.53;;
48853;SDS011;34673;52.808;17.856;2023-04-30T15:15:05;6.80;;;1.85;;
48853;SDS011;34673;52.808;17.856;2023-04-30T15:17:33;3.80;;;1.63;;
48853;SDS011;34673;52.808;17.856;2023-04-30T15:20:02;8.63;;;1.67;;
48853;SDS011;34673;52.808;17.856;2023-04-30T15:22:30;6.95;;;1.80;;
48853;SDS011;34673;52.808;17.856;2023-04-30T15:24:58;9.10;;;1.65;;